createdAt,value
2022-11-21T00:01:00.167Z,93819.47
2022-11-21T00:03:27.316Z,93814.38
2022-11-21T00:05:54.100Z,93827.66
2022-11-21T00:08:22.302Z,93818.47
2022-11-21T00:10:49.355Z,93808.00
2022-11-21T00:13:20.890Z,93801.47
2022-11-21T00:15:48.344Z,93798.59
2022-11-21T00:18:15.929Z,93794.53
2022-11-21T00:20:43.565Z,93776.09
2022-11-21T00:23:11.238Z,93785.53
2022-11-21T00:25:38.960Z,93784.94
2022-11-21T00:28:06.864Z,93756.47
2022-11-21T00:30:33.749Z,93742.94
2022-11-21T00:33:00.753Z,93753.66
2022-11-21T00:35:27.725Z,93739.47
2022-11-21T00:37:54.613Z,93721.38
2022-11-21T00:40:21.586Z,93738.25
2022-11-21T00:42:48.289Z,93716.84
2022-11-21T00:45:18.363Z,93707.91
2022-11-21T00:47:48.168Z,93754.75
2022-11-21T00:50:14.994Z,93768.56
2022-11-21T00:52:41.826Z,93768.38
2022-11-21T00:55:08.963Z,93720.66
2022-11-21T00:57:35.767Z,93738.44
2022-11-21T01:00:02.663Z,93741.88
2022-11-21T01:02:29.355Z,93746.25
2022-11-21T01:04:56.165Z,93732.31
2022-11-21T01:07:22.906Z,93720.00
2022-11-21T01:09:49.820Z,93721.66
2022-11-21T01:12:16.506Z,93731.75
2022-11-21T01:14:43.410Z,93709.06
2022-11-21T01:17:10.195Z,93714.47
2022-11-21T01:19:37.180Z,93696.88
2022-11-21T01:22:03.888Z,93714.53
2022-11-21T01:24:30.723Z,93736.06
2022-11-21T01:26:57.646Z,93718.19
2022-11-21T01:29:24.549Z,93733.03
2022-11-21T01:31:51.354Z,93711.91
2022-11-21T01:34:18.636Z,93681.16
2022-11-21T01:36:45.571Z,93711.97
2022-11-21T01:39:13.024Z,93679.31
2022-11-21T01:41:42.541Z,93680.56
2022-11-21T01:44:22.299Z,93710.94
2022-11-21T01:46:51.122Z,93712.84
2022-11-21T01:49:21.654Z,93700.56
2022-11-21T01:51:54.431Z,93681.72
2022-11-21T01:54:31.676Z,93679.06
2022-11-21T01:57:04.417Z,93696.31
2022-11-21T01:59:36.203Z,93692.53
2022-11-21T02:02:05.064Z,93693.75
2022-11-21T02:04:33.876Z,93713.88
2022-11-21T02:07:06.322Z,93709.81
2022-11-21T02:09:37.402Z,93734.16
2022-11-21T02:12:13.600Z,93702.31
2022-11-21T02:14:43.916Z,93721.13
2022-11-21T02:17:11.154Z,93740.22
2022-11-21T02:19:55.508Z,93730.88
2022-11-21T02:22:45.540Z,93700.66
2022-11-21T02:25:19.453Z,93718.97
2022-11-21T02:27:49.261Z,93711.16
2022-11-21T02:30:17.667Z,93707.50
2022-11-21T02:32:47.221Z,93753.41
2022-11-21T02:35:18.584Z,93753.75
2022-11-21T02:37:57.593Z,93720.59
2022-11-21T02:40:29.191Z,93712.16
2022-11-21T02:43:08.870Z,93699.84
2022-11-21T02:45:41.827Z,93693.78
2022-11-21T02:48:09.075Z,93681.75
2022-11-21T02:50:38.826Z,93671.78
2022-11-21T02:53:07.432Z,93659.63
2022-11-21T02:55:34.221Z,93654.66
2022-11-21T02:58:04.811Z,93668.97
2022-11-21T03:00:33.870Z,93643.22
2022-11-21T03:03:00.841Z,93603.81
2022-11-21T03:05:27.899Z,93628.34
2022-11-21T03:07:54.717Z,93608.69
2022-11-21T03:10:21.640Z,93637.25
2022-11-21T03:12:48.431Z,93645.25
2022-11-21T03:15:15.954Z,93657.38
2022-11-21T03:17:43.347Z,93644.00
2022-11-21T03:20:10.958Z,93647.19
2022-11-21T03:22:37.886Z,93648.41
2022-11-21T03:25:05.026Z,93661.88
2022-11-21T03:27:31.670Z,93653.53
2022-11-21T03:29:58.740Z,93660.06
2022-11-21T03:32:25.480Z,93651.56
2022-11-21T03:34:52.218Z,93648.38
2022-11-21T03:37:19.388Z,93658.91
2022-11-21T03:39:46.101Z,93664.59
2022-11-21T03:42:13.165Z,93664.31
2022-11-21T03:44:39.954Z,93641.53
2022-11-21T03:47:06.898Z,93624.06
2022-11-21T03:49:33.561Z,93619.28
2022-11-21T03:52:00.371Z,93644.19
2022-11-21T03:54:27.369Z,93659.06
2022-11-21T03:56:54.490Z,93654.22
2022-11-21T03:59:22.196Z,93640.53
2022-11-21T04:01:49.178Z,93629.97
2022-11-21T04:04:16.006Z,93639.66
2022-11-21T04:06:42.966Z,93618.16
2022-11-21T04:09:10.629Z,93622.63
2022-11-21T04:11:37.814Z,93631.41
2022-11-21T04:14:04.639Z,93637.47
2022-11-21T04:16:31.619Z,93613.34
2022-11-21T04:18:58.363Z,93600.25
2022-11-21T04:21:25.422Z,93598.66
2022-11-21T04:23:52.348Z,93602.97
2022-11-21T04:26:19.157Z,93605.88
2022-11-21T04:28:46.116Z,93620.75
2022-11-21T04:31:13.349Z,93611.78
2022-11-21T04:33:40.431Z,93618.56
2022-11-21T04:36:08.942Z,93635.09
2022-11-21T04:38:36.479Z,93644.38
2022-11-21T04:41:03.486Z,93637.78
2022-11-21T04:43:30.325Z,93613.19
2022-11-21T04:45:57.023Z,93633.16
2022-11-21T04:48:24.720Z,93660.00
2022-11-21T04:50:51.482Z,93673.38
2022-11-21T04:53:18.359Z,93665.72
2022-11-21T04:55:45.041Z,93658.75
2022-11-21T04:58:12.041Z,93647.72
2022-11-21T05:00:39.799Z,93655.19
2022-11-21T05:03:07.048Z,93666.06
2022-11-21T05:05:33.910Z,93670.06
2022-11-21T05:08:00.923Z,93696.31
2022-11-21T05:10:27.884Z,93700.00
2022-11-21T05:13:17.691Z,93689.31
2022-11-21T05:15:45.030Z,93693.03
2022-11-21T05:18:11.801Z,93717.25
2022-11-21T05:20:38.799Z,93721.59
2022-11-21T05:23:05.557Z,93718.19
2022-11-21T05:25:32.284Z,93688.41
2022-11-21T05:27:59.305Z,93690.25
2022-11-21T05:30:26.175Z,93714.13
2022-11-21T05:32:53.196Z,93723.16
2022-11-21T05:35:20.082Z,93719.75
2022-11-21T05:37:46.944Z,93706.84
2022-11-21T05:40:13.730Z,93709.16
2022-11-21T05:43:01.537Z,93721.28
2022-11-21T05:45:28.398Z,93740.34
2022-11-21T05:47:55.165Z,93751.50
2022-11-21T05:50:22.042Z,93765.38
2022-11-21T05:52:49.018Z,93778.16
2022-11-21T05:55:15.853Z,93738.91
2022-11-21T05:57:42.770Z,93727.09
2022-11-21T06:00:09.880Z,93764.22
2022-11-21T06:02:55.375Z,93775.94
2022-11-21T06:05:22.376Z,93758.00
2022-11-21T06:07:49.425Z,93778.56
2022-11-21T06:10:16.856Z,93785.44
2022-11-21T06:12:43.556Z,93772.38
2022-11-21T06:15:10.879Z,93808.28
2022-11-21T06:17:37.612Z,93805.03
2022-11-21T06:20:04.673Z,93792.34
2022-11-21T06:22:31.589Z,93813.63
2022-11-21T06:24:58.393Z,93815.28
2022-11-21T06:27:25.349Z,93847.09
2022-11-21T06:29:52.057Z,93853.94
2022-11-21T06:32:18.968Z,93842.34
2022-11-21T06:34:45.743Z,93841.84
2022-11-21T06:37:12.719Z,93840.69
2022-11-21T06:39:39.449Z,93864.06
2022-11-21T06:42:06.323Z,93871.06
2022-11-21T06:44:33.070Z,93883.88
2022-11-21T06:47:00.068Z,93880.13
2022-11-21T06:49:26.783Z,93886.91
2022-11-21T06:51:54.735Z,93879.84
2022-11-21T06:54:21.652Z,93880.47
2022-11-21T06:56:51.844Z,93916.28
2022-11-21T06:59:18.585Z,93921.53
2022-11-21T07:01:45.491Z,93943.88
2022-11-21T07:04:12.652Z,93942.53
2022-11-21T07:06:39.560Z,93935.84
2022-11-21T07:11:53.466Z,93956.50
2022-11-21T07:14:20.333Z,93967.59
2022-11-21T07:16:47.031Z,93958.56
2022-11-21T07:19:14.055Z,93963.19
2022-11-21T07:21:43.112Z,93969.03
2022-11-21T07:24:09.846Z,93987.66
2022-11-21T07:26:37.805Z,93975.63
2022-11-21T07:29:04.453Z,94002.22
2022-11-21T07:31:31.315Z,94018.97
2022-11-21T07:33:58.079Z,94033.38
2022-11-21T07:36:24.944Z,94029.50
2022-11-21T07:38:52.672Z,94033.97
2022-11-21T07:41:19.440Z,94044.34
2022-11-21T07:43:46.158Z,94061.50
2022-11-21T07:46:12.828Z,94060.34
2022-11-21T07:48:39.552Z,94074.06
2022-11-21T07:51:06.278Z,94060.44
2022-11-21T07:53:33.211Z,94076.59
2022-11-21T07:56:00.501Z,94085.78
2022-11-21T07:58:27.332Z,94094.41
2022-11-21T08:00:54.292Z,94101.16
2022-11-21T08:03:21.025Z,94109.78
2022-11-21T08:05:48.642Z,94125.97
2022-11-21T08:08:15.525Z,94136.75
2022-11-21T08:10:45.253Z,94129.03
2022-11-21T08:13:13.178Z,94130.50
2022-11-21T08:15:40.402Z,94138.03
2022-11-21T08:18:11.866Z,94146.50
2022-11-21T08:20:38.963Z,94144.19
2022-11-21T08:23:06.753Z,94153.41
2022-11-21T08:25:41.018Z,94151.41
2022-11-21T08:28:09.583Z,94140.53
2022-11-21T08:30:37.623Z,94141.78
2022-11-21T08:33:05.091Z,94144.81
2022-11-21T08:35:31.872Z,94148.19
2022-11-21T08:38:00.662Z,94164.06
2022-11-21T08:40:29.602Z,94159.47
2022-11-21T08:43:00.491Z,94159.00
2022-11-21T08:45:27.611Z,94147.50
2022-11-21T08:47:55.167Z,94152.16
2022-11-21T08:50:23.247Z,94153.34
2022-11-21T08:52:50.127Z,94161.75
2022-11-21T08:55:17.123Z,94152.53
2022-11-21T08:57:44.005Z,94152.53
2022-11-21T09:00:12.727Z,94163.53
2022-11-21T09:02:39.568Z,94152.97
2022-11-21T09:05:07.121Z,94161.09
2022-11-21T09:07:34.039Z,94152.34
2022-11-21T09:10:00.898Z,94157.97
2022-11-21T09:12:28.693Z,94155.44
2022-11-21T09:15:14.195Z,94150.78
2022-11-21T09:17:59.509Z,94167.53
2022-11-21T09:20:26.395Z,94143.38
2022-11-21T09:22:53.278Z,94148.38
2022-11-21T09:25:20.283Z,94139.03
2022-11-21T09:27:47.156Z,94150.56
2022-11-21T09:30:14.684Z,94144.81
2022-11-21T09:32:41.495Z,94133.19
2022-11-21T09:35:09.204Z,94144.69
2022-11-21T09:37:40.434Z,94147.94
2022-11-21T09:40:10.673Z,94149.22
2022-11-21T09:42:55.994Z,94147.50
2022-11-21T09:45:29.676Z,94139.78
2022-11-21T09:47:56.839Z,94143.34
2022-11-21T09:50:30.659Z,94135.03
2022-11-21T09:53:21.138Z,94134.91
2022-11-21T09:56:12.550Z,94152.50
2022-11-21T09:58:50.534Z,94162.22
2022-11-21T10:01:18.072Z,94164.84
2022-11-21T10:03:50.822Z,94167.59
2022-11-21T10:06:36.529Z,94177.34
2022-11-21T10:09:31.167Z,94186.91
2022-11-21T10:12:30.449Z,94200.59
2022-11-21T10:15:06.875Z,94196.03
2022-11-21T10:17:36.581Z,94193.94
2022-11-21T10:20:10.987Z,94198.69
2022-11-21T10:22:44.622Z,94190.69
2022-11-21T10:25:27.113Z,94196.63
2022-11-21T10:27:56.803Z,94207.91
2022-11-21T10:30:23.735Z,94211.75
2022-11-21T10:32:57.215Z,94205.34
2022-11-21T10:35:25.861Z,94208.13
2022-11-21T10:38:01.518Z,94200.34
2022-11-21T10:40:41.132Z,94196.50
2022-11-21T10:43:45.814Z,94201.19
2022-11-21T10:46:12.681Z,94195.81
2022-11-21T10:48:39.459Z,94201.47
2022-11-21T10:51:29.034Z,94198.06
2022-11-21T10:54:29.727Z,94199.34
2022-11-21T10:57:07.793Z,94189.38
2022-11-21T10:59:34.742Z,94191.75
2022-11-21T11:02:13.712Z,94206.03
2022-11-21T11:04:47.293Z,94205.59
2022-11-21T11:07:24.325Z,94207.53
2022-11-21T11:09:52.697Z,94208.84
2022-11-21T11:12:51.297Z,94217.50
2022-11-21T11:15:20.708Z,94200.31
2022-11-21T11:18:05.598Z,94203.41
2022-11-21T11:20:41.366Z,94205.31
2022-11-21T11:23:24.305Z,94217.69
2022-11-21T11:25:57.669Z,94197.53
2022-11-21T11:28:26.465Z,94197.53
2022-11-21T11:30:56.052Z,94187.69
2022-11-21T11:33:35.986Z,94192.59
2022-11-21T11:36:15.194Z,94197.31
2022-11-21T11:38:57.470Z,94189.25
2022-11-21T11:42:16.355Z,94189.78
2022-11-21T11:45:18.450Z,94181.81
2022-11-21T11:47:55.950Z,94180.47
2022-11-21T11:50:31.566Z,94168.38
2022-11-21T11:53:07.608Z,94182.53
2022-11-21T11:55:37.051Z,94180.50
2022-11-21T11:58:11.569Z,94188.16
2022-11-21T12:01:17.193Z,94191.63
2022-11-21T12:04:13.223Z,94184.88
2022-11-21T12:07:54.064Z,94186.06
2022-11-21T12:09:39.800Z,94188.31
2022-11-21T12:12:16.996Z,94187.09
2022-11-21T12:15:21.102Z,94194.50
2022-11-21T12:18:15.575Z,94190.44
2022-11-21T12:20:54.997Z,94194.03
2022-11-21T12:23:25.137Z,94198.66
2022-11-21T12:26:03.777Z,94199.81
2022-11-21T12:28:49.461Z,94198.53
2022-11-21T12:32:04.352Z,94202.63
2022-11-21T12:34:49.186Z,94203.31
2022-11-21T12:37:47.437Z,94221.19
2022-11-21T12:40:20.285Z,94216.69
2022-11-21T12:42:56.898Z,94209.56
2022-11-21T12:45:32.400Z,94215.53
2022-11-21T12:48:41.393Z,94217.97
2022-11-21T12:51:39.094Z,94221.50
2022-11-21T12:54:33.241Z,94216.13
2022-11-21T12:57:17.717Z,94213.72
2022-11-21T13:00:04.052Z,94214.78
2022-11-21T13:02:52.433Z,94208.97
2022-11-21T13:05:27.539Z,94229.06
2022-11-21T13:08:03.777Z,94231.06
2022-11-21T13:10:32.561Z,94221.50
2022-11-21T13:13:03.158Z,94220.66
2022-11-21T13:15:50.842Z,94232.06
2022-11-21T13:18:24.365Z,94234.44
2022-11-21T13:20:52.516Z,94247.41
2022-11-21T13:23:42.526Z,94256.38
2022-11-21T13:26:24.714Z,94250.66
2022-11-21T13:29:08.617Z,94249.00
2022-11-21T13:31:35.900Z,94242.81
2022-11-21T13:34:04.347Z,94241.16
2022-11-21T13:36:33.966Z,94247.75
2022-11-21T13:39:00.807Z,94258.41
2022-11-21T13:41:55.634Z,94251.00
2022-11-21T13:44:34.684Z,94254.88
2022-11-21T13:47:13.424Z,94243.88
2022-11-21T13:49:43.299Z,94241.22
2022-11-21T13:52:19.222Z,94246.97
2022-11-21T13:54:54.986Z,94248.03
2022-11-21T13:57:34.543Z,94248.16
2022-11-21T14:00:38.838Z,94254.38
2022-11-21T14:03:37.456Z,94247.59
2022-11-21T14:06:20.993Z,94257.06
2022-11-21T14:09:14.817Z,94252.28
2022-11-21T14:11:55.991Z,94242.28
2022-11-21T14:14:29.425Z,94235.03
2022-11-21T14:17:08.863Z,94238.41
2022-11-21T14:19:36.483Z,94237.28
2022-11-21T14:22:03.273Z,94237.00
2022-11-21T14:24:30.309Z,94244.94
2022-11-21T14:26:58.137Z,94255.88
2022-11-21T14:29:38.846Z,94254.28
2022-11-21T14:32:06.331Z,94268.47
2022-11-21T14:34:33.370Z,94266.94
2022-11-21T14:37:04.223Z,94262.47
2022-11-21T14:39:43.501Z,94254.91
2022-11-21T14:42:16.403Z,94259.59
2022-11-21T14:44:44.202Z,94250.75
2022-11-21T14:47:25.088Z,94246.31
2022-11-21T14:49:55.494Z,94263.31
2022-11-21T14:52:29.244Z,94259.63
2022-11-21T14:57:48.372Z,94268.56
2022-11-21T15:03:21.758Z,94281.50
2022-11-21T15:06:07.381Z,94276.81
2022-11-21T15:11:28.868Z,94284.72
2022-11-21T15:14:18.015Z,94274.81
2022-11-21T15:16:51.373Z,94282.09
2022-11-21T15:19:23.997Z,94283.19
2022-11-21T15:21:56.581Z,94298.81
2022-11-21T15:24:37.746Z,94312.69
2022-11-21T15:27:27.020Z,94296.28
2022-11-21T15:30:14.771Z,94273.19
2022-11-21T15:33:01.360Z,94291.53
2022-11-21T15:35:48.472Z,94290.47
2022-11-21T15:38:26.880Z,94305.94
2022-11-21T15:40:59.260Z,94293.38
2022-11-21T15:46:42.217Z,94287.34
2022-11-21T15:49:32.309Z,94288.41
2022-11-21T15:52:09.590Z,94275.38
2022-11-21T15:54:36.867Z,94278.50
2022-11-21T15:57:04.010Z,94281.63
2022-11-21T15:57:13.829Z,94292.59
2022-11-21T15:59:31.299Z,94287.13
2022-11-21T16:01:58.682Z,94293.13
2022-11-21T16:04:26.301Z,94294.16
2022-11-21T16:06:54.742Z,94296.28
2022-11-21T16:09:21.469Z,94307.50
2022-11-21T16:11:48.425Z,94314.84
2022-11-21T16:14:18.345Z,94319.78
2022-11-21T16:16:47.093Z,94325.00
2022-11-21T16:19:15.568Z,94324.22
2022-11-21T16:21:42.744Z,94319.81
2022-11-21T16:24:09.662Z,94319.28
2022-11-21T16:26:36.425Z,94317.47
2022-11-21T16:29:05.413Z,94303.56
2022-11-21T16:31:33.185Z,94315.88
2022-11-21T16:34:00.919Z,94310.91
2022-11-21T16:36:30.012Z,94320.56
2022-11-21T16:39:07.640Z,94335.88
2022-11-21T16:41:37.208Z,94343.59
2022-11-21T16:44:04.421Z,94344.66
2022-11-21T16:46:31.360Z,94350.50
2022-11-21T16:49:03.504Z,94356.25
2022-11-21T16:51:30.930Z,94346.81
2022-11-21T16:54:00.617Z,94346.34
2022-11-21T16:56:31.434Z,94339.56
2022-11-21T16:58:58.231Z,94353.16
2022-11-21T17:01:26.982Z,94365.03
2022-11-21T17:03:54.406Z,94366.41
2022-11-21T17:06:24.614Z,94373.38
2022-11-21T17:08:51.350Z,94370.84
2022-11-21T17:11:23.620Z,94359.97
2022-11-21T17:13:51.442Z,94405.97
2022-11-21T17:16:20.914Z,94404.97
2022-11-21T17:18:48.161Z,94391.25
2022-11-21T17:21:16.237Z,94398.81
2022-11-21T17:23:45.895Z,94405.34
2022-11-21T17:26:14.959Z,94402.25
2022-11-21T17:28:45.695Z,94396.72
2022-11-21T17:31:15.480Z,94421.59
2022-11-21T17:33:43.450Z,94409.69
2022-11-21T17:36:14.860Z,94417.75
2022-11-21T17:38:43.128Z,94419.84
2022-11-21T17:41:13.152Z,94415.50
2022-11-21T17:43:40.419Z,94417.72
2022-11-21T17:46:10.527Z,94434.94
2022-11-21T17:48:38.534Z,94434.59
2022-11-21T17:51:09.412Z,94426.06
2022-11-21T17:53:38.519Z,94439.28
2022-11-21T17:56:06.815Z,94440.78
2022-11-21T17:58:34.202Z,94439.25
2022-11-21T18:03:53.124Z,94443.84
2022-11-21T18:06:20.064Z,94455.66
2022-11-21T18:08:48.459Z,94441.81
2022-11-21T18:11:21.129Z,94432.97
2022-11-21T18:13:49.916Z,94437.19
2022-11-21T18:16:19.898Z,94440.25
2022-11-21T18:18:47.158Z,94440.16
2022-11-21T18:21:17.473Z,94446.00
2022-11-21T18:23:45.253Z,94435.31
2022-11-21T18:26:15.089Z,94434.59
2022-11-21T18:28:42.465Z,94432.72
2022-11-21T18:31:15.153Z,94436.84
2022-11-21T18:33:43.173Z,94428.72
2022-11-21T18:36:12.123Z,94430.72
2022-11-21T18:38:48.700Z,94429.31
2022-11-21T18:41:20.877Z,94431.72
2022-11-21T18:43:55.994Z,94433.94
2022-11-21T18:46:24.555Z,94433.28
2022-11-21T18:49:04.148Z,94449.47
2022-11-21T18:51:33.258Z,94443.81
2022-11-21T18:54:04.299Z,94446.28
2022-11-21T18:56:32.282Z,94448.03
2022-11-21T18:58:59.521Z,94445.69
2022-11-21T19:01:29.214Z,94435.84
2022-11-21T19:03:57.491Z,94438.31
2022-11-21T19:06:26.000Z,94452.50
2022-11-21T19:08:54.865Z,94456.81
2022-11-21T19:11:26.944Z,94459.63
2022-11-21T19:13:55.085Z,94460.22
2022-11-21T19:16:24.852Z,94456.34
2022-11-21T19:21:42.250Z,94465.16
2022-11-21T19:24:13.843Z,94466.88
2022-11-21T19:26:41.482Z,94462.59
2022-11-21T19:29:08.475Z,94474.34
2022-11-21T19:31:40.695Z,94463.28
2022-11-21T19:34:09.813Z,94458.53
2022-11-21T19:36:36.700Z,94453.44
2022-11-21T19:39:03.493Z,94465.69
2022-11-21T19:41:30.900Z,94461.78
2022-11-21T19:43:59.800Z,94460.25
2022-11-21T19:46:27.842Z,94473.78
2022-11-21T19:48:55.965Z,94473.88
2022-11-21T19:51:28.168Z,94479.00
2022-11-21T19:53:55.359Z,94468.63
2022-11-21T19:56:24.045Z,94474.56
2022-11-21T19:58:52.338Z,94481.25
2022-11-21T20:01:27.451Z,94479.44
2022-11-21T20:03:56.347Z,94477.84
2022-11-21T20:06:26.009Z,94484.28
2022-11-21T20:08:55.189Z,94481.19
2022-11-21T20:11:23.379Z,94495.84
2022-11-21T20:13:50.978Z,94510.09
2022-11-21T20:16:18.534Z,94501.63
2022-11-21T20:18:45.503Z,94505.94
2022-11-21T20:21:13.357Z,94512.66
2022-11-21T20:23:40.923Z,94512.31
2022-11-21T20:26:08.971Z,94516.09
2022-11-21T20:28:37.232Z,94517.38
2022-11-21T20:31:09.652Z,94510.34
2022-11-21T20:33:38.590Z,94518.44
2022-11-21T20:36:11.063Z,94515.56
2022-11-21T20:38:38.060Z,94525.94
2022-11-21T20:41:05.225Z,94524.25
2022-11-21T20:44:02.801Z,94523.78
2022-11-21T20:46:20.740Z,94524.25
2022-11-21T20:48:48.265Z,94521.19
2022-11-21T20:54:03.869Z,94530.94
2022-11-21T20:56:35.195Z,94538.00
2022-11-21T20:59:03.643Z,94535.00
2022-11-21T21:01:31.120Z,94540.38
2022-11-21T21:03:58.169Z,94542.31
2022-11-21T21:06:25.112Z,94536.53
2022-11-21T21:08:52.927Z,94534.06
2022-11-21T21:11:51.600Z,94549.28
2022-11-21T21:14:09.335Z,94538.13
2022-11-21T21:16:36.369Z,94548.84
2022-11-21T21:19:03.463Z,94545.22
2022-11-21T21:21:33.285Z,94533.88
2022-11-21T21:24:03.050Z,94546.91
2022-11-21T21:26:41.919Z,94540.81
2022-11-21T21:29:10.907Z,94521.97
2022-11-21T21:31:37.736Z,94543.75
2022-11-21T21:34:04.406Z,94534.00
2022-11-21T21:36:32.213Z,94537.13
2022-11-21T21:39:00.341Z,94537.66
2022-11-21T21:41:29.033Z,94537.91
2022-11-21T21:43:57.530Z,94546.81
2022-11-21T21:46:28.101Z,94543.66
2022-11-21T21:48:57.412Z,94545.25
2022-11-21T21:51:29.134Z,94543.03
2022-11-21T21:53:57.309Z,94542.38
2022-11-21T21:56:25.756Z,94556.78
2022-11-21T21:58:53.188Z,94563.09
2022-11-21T22:01:25.611Z,94571.72
2022-11-21T22:03:54.224Z,94569.56
2022-11-21T22:06:21.104Z,94564.63
2022-11-21T22:08:49.048Z,94558.78
2022-11-21T22:11:18.986Z,94567.63
2022-11-21T22:13:47.848Z,94572.97
2022-11-21T22:16:15.190Z,94573.91
2022-11-21T22:18:42.294Z,94572.44
2022-11-21T22:21:23.722Z,94570.78
2022-11-21T22:24:17.824Z,94564.91
2022-11-21T22:26:38.732Z,94570.75
2022-11-21T22:29:06.099Z,94568.47
2022-11-21T22:31:33.193Z,94568.00
2022-11-21T22:34:00.719Z,94579.78
2022-11-21T22:36:27.578Z,94569.16
2022-11-21T22:38:55.641Z,94558.56
2022-11-21T22:41:25.151Z,94562.47
2022-11-21T22:43:59.478Z,94565.09
2022-11-21T22:46:28.129Z,94563.72
2022-11-21T22:48:55.257Z,94569.78
2022-11-21T22:51:25.254Z,94561.44
2022-11-21T22:53:52.368Z,94579.22
2022-11-21T22:56:21.560Z,94576.53
2022-11-21T22:58:49.030Z,94575.47
2022-11-21T23:01:21.070Z,94579.97
2022-11-21T23:03:49.290Z,94587.53
2022-11-21T23:06:17.254Z,94579.66
2022-11-21T23:08:44.563Z,94573.34
2022-11-21T23:11:21.594Z,94578.13
2022-11-21T23:13:49.196Z,94588.44
2022-11-21T23:16:16.803Z,94585.00
2022-11-21T23:18:44.114Z,94582.06
2022-11-21T23:21:12.306Z,94577.97
2022-11-21T23:23:39.348Z,94578.50
2022-11-21T23:26:06.830Z,94567.47
2022-11-21T23:28:34.055Z,94571.00
2022-11-21T23:31:00.788Z,94556.16
2022-11-21T23:33:27.647Z,94574.34
2022-11-21T23:35:54.457Z,94574.72
2022-11-21T23:38:22.054Z,94571.31
2022-11-21T23:40:49.739Z,94571.22
2022-11-21T23:43:17.576Z,94568.69
2022-11-21T23:45:45.426Z,94563.28
2022-11-21T23:48:12.240Z,94570.84
2022-11-21T23:50:39.191Z,94576.78
2022-11-21T23:53:05.873Z,94577.94
2022-11-21T23:55:32.701Z,94575.47
2022-11-21T23:57:59.635Z,94582.38
